Lenoir, NC (28633)

2:58 AM EDT on March 28, 2017 (GMT -0400)
Enloe Weather | | Change Station

Elev 1185 ft 35.93 °N, 81.55 °W | Updated 6 seconds ago

Overcast
Overcast
56.5 °F
Feels Like 56.5 °F
N
0.0
Wind Variable Wind from ENE

Today
High -- | Low -- °F
--% Chance of Precip.
Yesterday
High -- | Low -- °F
Precip. -- in
Pressure 30.00 in
Visibility 5.0 miles
Clouds Scattered Clouds 1900 ft
Mostly Cloudy 7500 ft
Overcast 9500 ft
Dew Point 56 °F
Humidity 98%
Rainfall 0.33 in
Snow Depth Not available.
7:17 AM 7:44 PM
New Moon, 0% visible
METAR KMRN 280640Z AUTO 00000KT 5SM -RA SCT019 BKN075 OVC095 15/15 A3000 RMK AO2 P0013 T01500150
Pressure 30.00 in
Visibility 5.0 miles
Clouds Scattered Clouds 1900 ft
Mostly Cloudy 7500 ft
Overcast 9500 ft
Dew Point 56 °F
Humidity 98%
Rainfall 0.33 in
Snow Depth Not available.
7:17 AM 7:44 PM
New Moon, 0% visible
METAR KMRN 280640Z AUTO 00000KT 5SM -RA SCT019 BKN075 OVC095 15/15 A3000 RMK AO2 P0013 T01500150

Get Severe Weather Alerts

Thanks for signing up!

Be on the lookout for a verification email in your inbox.

You'll start receiving the daily forecast at 8 AM.

×

10-Day Weather Forecast

Almanac

Astronomy

Mar. 28, 2017 Rise Set
Actual Time
Civil Twilight
Nautical Twilight
Astronomical Twilight
Moon
Length of Visible Light
Length of Day
Tomorrow will be .
, % of the Moon is Illuminated

Today's Extremes

State Highs State Lows

Community

WunderPhotos

Upload Photos

1,962,540 photos uploaded!

WunderBlog® & News

Nearby

Air Quality

  Air Quality AQ Index Pollutant
Not available.

Snow Depth

Station Depth Elevation

Earthquake Activity

City Distance Mag. Time & Date
Minimum magnitude displayed is 2.5.

Earthquake Activity

City Distance Mag. Time & Date
Minimum magnitude displayed is 2.5.

Coastal Water Temperatures

Place Temperature

Stations

Nearby Weather Stations

Station Location Temp. Windchill Dew Point Humidity Wind Precip. Elev Updated Type
                   

Watches & Warnings

There are currently no watches in effect.